LELC/MJV METAR and TAF weather

Enter ICAO airport designator
Station Type Date Time Source
LELC METAR 2019/12/06 02:00 UTC NOAA

LELC 060200Z AUTO 04011KT 9000 SCT014 BKN023 15/14 Q1020


Station Type Date Time Source
LELC Decoded METAR 2019/12/06 02:00 UTC NOAA

Murcia / San Javier, Spain (LELC) 37-47N 000-48W 3M
Dec 05, 2019 - 09:00 PM EST / 2019.12.06 0200 UTC
Wind: from the NE (040 degrees) at 13 MPH (11 KT):0
Visibility: 5 mile(s):0
Sky conditions: mostly cloudy
Temperature: 59 F (15 C)
Dew Point: 57 F (14 C)
Relative Humidity: 93%
Pressure (altimeter): 30.12 in. Hg (1020 hPa)
ob: LELC 060200Z AUTO 04011KT 9000 SCT014 BKN023 15/14 Q1020
cycle: 2

Station Type Date Time Source
LELC TAF 2019/12/05 18:27 UTC NOAA

TAF LELC 051700Z 0518/0618 04009KT 9999 SCT020 SCT040 TX18/0614Z TN12/0606Z PROB30
TEMPO 0522/0612 BKN014

Example: see airport list